Time;durP1;ratioP1;P1;durP2;ratioP2;P2;SDS_P1;SDS_P2;PMS_P1;PMS_P2;Temp;Humidity;BMP_temperature;BMP_pressure;BME280_temperature;BME280_humidity;BME280_pressure;Samples;Min_cycle;Max_cycle;Signal;HPM_P1;HPM_P2
2023/04/24 00:01:51;;;;;;;1.75;1.60;;;12.10;99.90;;;;;;5078506;27;20260;-66
2023/04/24 00:04:18;;;;;;;1.98;1.77;;;12.10;99.90;;;;;;5062350;27;20569;-66
2023/04/24 00:06:49;;;;;;;1.88;1.70;;;12.10;99.90;;;;;;5085800;27;20210;-66
2023/04/24 00:09:16;;;;;;;2.08;1.88;;;12.10;99.90;;;;;;5068371;27;20204;-66
2023/04/24 00:11:43;;;;;;;1.95;1.70;;;12.10;99.90;;;;;;5061860;27;20279;-66
2023/04/24 00:14:10;;;;;;;3.92;1.60;;;12.10;99.90;;;;;;5081856;27;20206;-67
2023/04/24 00:16:36;;;;;;;2.22;1.70;;;12.10;99.90;;;;;;5087896;27;20199;-66
2023/04/24 00:19:05;;;;;;;2.45;1.90;;;12.10;99.90;;;;;;5078849;27;20247;-67
2023/04/24 00:21:32;;;;;;;1.95;1.70;;;12.10;99.90;;;;;;5064434;27;20200;-66
2023/04/24 00:24:00;;;;;;;1.90;1.67;;;12.10;99.90;;;;;;5078503;27;20708;-67
2023/04/24 00:26:27;;;;;;;1.80;1.70;;;12.10;99.90;;;;;;5057827;27;20808;-67
2023/04/24 00:28:54;;;;;;;1.70;1.50;;;12.10;99.90;;;;;;5084258;27;20773;-67
2023/04/24 00:31:20;;;;;;;1.88;1.77;;;12.10;99.90;;;;;;5079429;27;20195;-66
2023/04/24 00:33:47;;;;;;;2.80;1.90;;;12.10;99.90;;;;;;5084368;27;20195;-66
2023/04/24 00:36:14;;;;;;;2.10;1.63;;;12.10;99.90;;;;;;5059853;27;20219;-67
2023/04/24 00:38:41;;;;;;;2.08;1.80;;;12.10;99.90;;;;;;5073703;27;20230;-67
2023/04/24 00:41:09;;;;;;;1.80;1.40;;;12.10;99.90;;;;;;5068287;27;20218;-67
2023/04/24 00:43:36;;;;;;;8.73;1.90;;;12.00;99.90;;;;;;5072161;27;20843;-66
2023/04/24 00:46:03;;;;;;;5.30;2.00;;;12.00;99.90;;;;;;5080051;28;20217;-66
2023/04/24 00:48:30;;;;;;;1.80;1.70;;;12.00;99.90;;;;;;5080983;27;20232;-66
2023/04/24 00:50:57;;;;;;;2.30;2.00;;;12.00;99.90;;;;;;5082327;27;20199;-66
2023/04/24 00:53:23;;;;;;;1.67;1.58;;;12.00;99.90;;;;;;5061254;27;20427;-67
2023/04/24 00:55:51;;;;;;;1.60;1.50;;;12.10;99.90;;;;;;5093419;27;20203;-66
2023/04/24 00:58:19;;;;;;;1.63;1.52;;;12.10;99.10;;;;;;5056548;27;20230;-66
2023/04/24 01:00:47;;;;;;;1.83;1.73;;;12.10;96.60;;;;;;5059863;27;20664;-66
2023/04/24 01:03:14;;;;;;;1.80;1.60;;;12.00;94.90;;;;;;5082453;27;20397;-66
2023/04/24 01:05:41;;;;;;;1.50;1.40;;;12.10;95.80;;;;;;5076980;28;20210;-66
2023/04/24 01:08:08;;;;;;;1.52;1.40;;;12.10;92.10;;;;;;5057609;27;20274;-66
2023/04/24 01:10:37;;;;;;;1.20;1.10;;;12.00;84.90;;;;;;5084388;27;20569;-66
2023/04/24 01:13:04;;;;;;;1.00;1.00;;;11.90;77.60;;;;;;5054067;27;20691;-66
2023/04/24 01:15:32;;;;;;;0.95;0.95;;;11.90;75.80;;;;;;5081984;27;20187;-66
2023/04/24 01:17:59;;;;;;;2.92;0.93;;;11.80;71.10;;;;;;5078929;27;20211;-66
2023/04/24 01:20:26;;;;;;;0.90;0.90;;;11.80;67.10;;;;;;5071642;28;20198;-66
2023/04/24 01:22:56;;;;;;;1.35;1.25;;;11.80;65.90;;;;;;5065187;27;20276;-66
2023/04/24 01:25:23;;;;;;;1.10;1.00;;;11.80;61.60;;;;;;5082077;27;20687;-66
2023/04/24 01:27:51;;;;;;;1.75;1.13;;;11.80;58.00;;;;;;5066586;27;20184;-67
2023/04/24 01:30:18;;;;;;;1.10;1.10;;;11.80;57.30;;;;;;5062574;27;20375;-66
2023/04/24 01:32:46;;;;;;;1.02;1.02;;;11.80;54.90;;;;;;5080766;27;20223;-66
2023/04/24 01:35:13;;;;;;;1.30;1.20;;;11.70;53.60;;;;;;5079373;27;20519;-66
2023/04/24 01:37:39;;;;;;;2.10;1.27;;;11.80;55.60;;;;;;5078182;27;20206;-66
2023/04/24 01:40:09;;;;;;;1.25;1.15;;;11.70;52.40;;;;;;5058913;27;20195;-66
2023/04/24 01:42:36;;;;;;;3.20;1.55;;;11.70;54.20;;;;;;5085273;27;20208;-66
2023/04/24 01:45:05;;;;;;;1.60;1.50;;;11.70;52.80;;;;;;5048582;27;20203;-67
2023/04/24 01:47:33;;;;;;;4.80;1.42;;;11.80;49.60;;;;;;5086311;28;20314;-66
2023/04/24 01:50:00;;;;;;;2.10;1.92;;;11.80;47.00;;;;;;5076934;27;20206;-66
2023/04/24 01:52:28;;;;;;;1.85;1.75;;;11.70;46.90;;;;;;5074574;27;20712;-66
2023/04/24 01:54:55;;;;;;;1.90;1.80;;;11.70;50.90;;;;;;5057014;27;20203;-66
2023/04/24 01:57:24;;;;;;;2.25;1.60;;;11.60;53.80;;;;;;5072191;28;20221;-66
2023/04/24 01:59:52;;;;;;;3.38;2.00;;;11.60;57.70;;;;;;5064104;28;20207;-66
2023/04/24 02:02:20;;;;;;;3.58;2.15;;;11.60;56.50;;;;;;5071068;27;20866;-66
2023/04/24 02:04:47;;;;;;;2.08;1.95;;;11.60;58.10;;;;;;5080648;27;20628;-66
2023/04/24 02:07:14;;;;;;;2.30;2.10;;;11.70;57.40;;;;;;5075568;27;22751;-66
2023/04/24 02:09:41;;;;;;;2.30;2.10;;;11.70;57.30;;;;;;5050395;28;20199;-66
2023/04/24 02:12:08;;;;;;;2.67;2.20;;;11.70;56.00;;;;;;5078398;27;20224;-66
2023/04/24 02:14:36;;;;;;;2.42;1.95;;;11.70;60.10;;;;;;5080217;28;20672;-66
2023/04/24 02:17:03;;;;;;;2.35;2.17;;;11.70;54.70;;;;;;5051551;28;20207;-66
2023/04/24 02:19:30;;;;;;;2.58;2.38;;;11.60;55.20;;;;;;5080972;28;20200;-66
2023/04/24 02:21:59;;;;;;;2.50;2.20;;;11.70;59.20;;;;;;5075085;28;20555;-66
2023/04/24 02:24:26;;;;;;;3.80;2.40;;;11.60;60.00;;;;;;5050171;28;20304;-66
2023/04/24 02:26:53;;;;;;;2.17;1.85;;;11.60;63.80;;;;;;5080643;27;20667;-66
2023/04/24 02:29:19;;;;;;;2.35;2.15;;;11.60;59.30;;;;;;5079114;27;20793;-66
2023/04/24 02:31:48;;;;;;;2.70;2.50;;;11.60;61.80;;;;;;5053403;27;20207;-66
2023/04/24 02:34:14;;;;;;;2.50;2.30;;;11.60;58.40;;;;;;5077036;28;21681;-66
2023/04/24 02:36:41;;;;;;;2.72;2.28;;;11.60;59.50;;;;;;5089640;27;20195;-66
2023/04/24 02:39:08;;;;;;;2.22;2.08;;;11.60;56.20;;;;;;5065456;27;20672;-66
2023/04/24 02:41:35;;;;;;;2.88;2.30;;;11.60;55.60;;;;;;5050885;28;20204;-66
2023/04/24 02:44:01;;;;;;;1.98;1.88;;;11.60;50.00;;;;;;5078305;28;20289;-66
2023/04/24 02:46:28;;;;;;;2.63;2.08;;;11.70;44.10;;;;;;5056137;28;20905;-66
2023/04/24 02:48:56;;;;;;;2.03;1.92;;;11.70;41.10;;;;;;5086055;28;20251;-66
2023/04/24 02:51:23;;;;;;;3.67;2.03;;;11.70;39.20;;;;;;5084015;28;20191;-66
2023/04/24 02:53:50;;;;;;;2.83;2.53;;;11.70;38.60;;;;;;5085196;28;20573;-66
2023/04/24 02:56:16;;;;;;;2.92;2.60;;;11.70;37.20;;;;;;5058571;28;20382;-66
2023/04/24 02:58:43;;;;;;;3.03;2.55;;;11.60;36.70;;;;;;5081024;28;20499;-66
2023/04/24 03:01:10;;;;;;;2.65;2.45;;;11.60;38.10;;;;;;5053094;28;21171;-67
2023/04/24 03:03:37;;;;;;;2.58;2.38;;;11.60;37.40;;;;;;5084263;28;20200;-66
2023/04/24 03:06:06;;;;;;;2.72;2.30;;;11.70;32.70;;;;;;5081929;28;20437;-66
2023/04/24 03:08:32;;;;;;;2.65;2.40;;;11.60;33.10;;;;;;5089353;28;20237;-66
2023/04/24 03:10:59;;;;;;;2.53;2.30;;;11.60;30.80;;;;;;5054142;28;20203;-66
2023/04/24 03:13:26;;;;;;;2.88;2.53;;;11.60;38.10;;;;;;5083251;28;20227;-66
2023/04/24 03:15:53;;;;;;;3.97;2.15;;;11.60;37.70;;;;;;5069560;28;20188;-66
2023/04/24 03:18:20;;;;;;;3.33;2.30;;;11.60;39.20;;;;;;5086476;28;20195;-66
2023/04/24 03:20:48;;;;;;;2.63;2.42;;;11.60;41.30;;;;;;5081122;28;20196;-66
2023/04/24 03:23:16;;;;;;;3.40;2.70;;;11.60;40.10;;;;;;5072721;28;20199;-66
2023/04/24 03:25:43;;;;;;;2.92;2.72;;;11.50;39.30;;;;;;5075089;28;20203;-66
2023/04/24 03:28:10;;;;;;;2.63;2.42;;;11.60;41.70;;;;;;5049244;28;20319;-66
2023/04/24 03:30:37;;;;;;;3.13;2.85;;;11.50;47.60;;;;;;5079121;27;20815;-66
2023/04/24 03:33:03;;;;;;;3.78;3.33;;;11.50;48.60;;;;;;5060107;27;20639;-66
2023/04/24 03:35:30;;;;;;;3.80;3.35;;;11.50;52.00;;;;;;5078364;27;20957;-66
2023/04/24 03:37:57;;;;;;;3.97;3.65;;;11.40;52.60;;;;;;5073489;27;20200;-66
2023/04/24 03:40:25;;;;;;;3.88;3.55;;;11.40;51.50;;;;;;5085015;27;20240;-66
2023/04/24 03:42:52;;;;;;;4.28;3.88;;;11.40;51.70;;;;;;5055436;27;20203;-66
2023/04/24 03:45:19;;;;;;;3.80;3.50;;;11.40;52.90;;;;;;5081345;27;20308;-66
2023/04/24 03:47:46;;;;;;;4.60;4.20;;;11.40;54.90;;;;;;5063051;27;20239;-66
2023/04/24 03:50:12;;;;;;;3.90;3.60;;;11.40;57.60;;;;;;5067912;27;20203;-66
2023/04/24 03:52:39;;;;;;;4.35;3.97;;;11.40;59.50;;;;;;5087180;27;20715;-66
2023/04/24 03:55:07;;;;;;;4.30;3.90;;;11.30;58.90;;;;;;5088709;27;20731;-66
2023/04/24 03:57:35;;;;;;;3.78;3.47;;;11.40;59.70;;;;;;5055620;27;20222;-66
2023/04/24 04:00:04;;;;;;;5.03;3.50;;;11.40;58.20;;;;;;5072963;27;20196;-66
2023/04/24 04:02:31;;;;;;;4.10;3.28;;;11.40;58.00;;;;;;5057347;28;20195;-66
2023/04/24 04:04:57;;;;;;;3.63;3.33;;;11.40;56.00;;;;;;5053343;27;20207;-66
2023/04/24 04:07:24;;;;;;;4.47;3.53;;;11.40;53.90;;;;;;5076883;27;20207;-66
2023/04/24 04:09:51;;;;;;;4.10;3.70;;;11.40;56.00;;;;;;5063790;27;20211;-66
2023/04/24 04:12:18;;;;;;;3.78;3.38;;;11.40;54.70;;;;;;5082767;28;20765;-66
2023/04/24 04:14:46;;;;;;;4.30;3.58;;;11.30;55.10;;;;;;5046597;27;20191;-66
2023/04/24 04:17:13;;;;;;;6.72;3.40;;;11.40;57.70;;;;;;5077933;27;20215;-66
2023/04/24 04:19:40;;;;;;;6.15;3.17;;;11.30;58.20;;;;;;5072293;28;20199;-66
2023/04/24 04:22:07;;;;;;;3.47;3.17;;;11.30;61.10;;;;;;5073046;28;20494;-66
2023/04/24 04:24:37;;;;;;;3.60;3.30;;;11.40;57.80;;;;;;5055952;28;20200;-66
2023/04/24 04:27:04;;;;;;;4.72;3.40;;;11.30;55.00;;;;;;5077226;28;20388;-66
2023/04/24 04:29:32;;;;;;;3.80;3.50;;;11.40;58.50;;;;;;5058068;27;20204;-66
2023/04/24 04:32:01;;;;;;;5.35;3.75;;;11.40;60.00;;;;;;5083441;28;20191;-66
2023/04/24 04:34:28;;;;;;;5.35;3.50;;;11.40;60.30;;;;;;5076885;27;20312;-66
2023/04/24 04:36:55;;;;;;;3.90;3.50;;;11.40;56.50;;;;;;5047731;27;20522;-66
2023/04/24 04:39:22;;;;;;;5.25;3.55;;;11.40;51.40;;;;;;5067751;27;20195;-65
2023/04/24 04:41:50;;;;;;;4.32;3.92;;;11.40;50.40;;;;;;5072405;28;20206;-66
2023/04/24 04:44:17;;;;;;;4.88;3.60;;;11.50;47.40;;;;;;5051113;27;20307;-66
2023/04/24 04:46:44;;;;;;;4.47;3.90;;;11.50;42.30;;;;;;5075995;27;20200;-66
2023/04/24 04:49:12;;;;;;;4.28;3.85;;;11.40;41.60;;;;;;5066087;27;20688;-66
2023/04/24 04:51:39;;;;;;;7.28;3.65;;;11.40;39.00;;;;;;5049100;27;20219;-66
2023/04/24 04:54:06;;;;;;;5.63;3.80;;;11.40;41.00;;;;;;5052218;27;20228;-66
2023/04/24 04:56:33;;;;;;;5.38;3.97;;;11.40;43.90;;;;;;5065414;27;21190;-66
2023/04/24 04:59:00;;;;;;;4.22;3.70;;;11.40;44.20;;;;;;5064787;27;20823;-66
2023/04/24 05:01:27;;;;;;;4.38;3.78;;;11.30;46.60;;;;;;5044739;27;21336;-67
2023/04/24 05:03:54;;;;;;;5.55;4.00;;;11.30;46.40;;;;;;5071778;27;20218;-66
2023/04/24 05:06:22;;;;;;;5.75;4.00;;;11.40;46.80;;;;;;5047518;27;20211;-66
2023/04/24 05:08:49;;;;;;;14.57;4.18;;;11.40;47.00;;;;;;5045576;27;20685;-65
2023/04/24 05:11:16;;;;;;;6.05;4.50;;;11.40;47.40;;;;;;5045036;27;20473;-66
2023/04/24 05:13:43;;;;;;;5.13;3.60;;;11.30;48.70;;;;;;5068883;27;20671;-66
2023/04/24 05:16:09;;;;;;;4.20;3.80;;;11.40;47.50;;;;;;5053035;27;20214;-65
2023/04/24 05:18:36;;;;;;;4.95;4.07;;;11.40;46.60;;;;;;5070393;27;20216;-66
2023/04/24 05:21:03;;;;;;;6.10;4.53;;;11.30;49.20;;;;;;5057506;27;20219;-66
2023/04/24 05:23:31;;;;;;;4.70;3.88;;;11.30;51.10;;;;;;5040693;27;20233;-66
2023/04/24 05:25:58;;;;;;;5.65;4.15;;;11.40;51.70;;;;;;5060210;27;20199;-66
2023/04/24 05:28:28;;;;;;;3.97;3.58;;;11.30;51.10;;;;;;5080605;27;20197;-66
2023/04/24 05:30:55;;;;;;;5.65;4.00;;;11.30;48.40;;;;;;5056052;27;20348;-66
2023/04/24 05:33:21;;;;;;;5.05;4.55;;;11.30;49.10;;;;;;5059552;27;20255;-66
2023/04/24 05:35:48;;;;;;;5.25;3.70;;;11.40;51.50;;;;;;5080305;27;20732;-66
2023/04/24 05:38:17;;;;;;;4.35;3.95;;;11.40;53.70;;;;;;5052216;27;20215;-66
2023/04/24 05:40:45;;;;;;;5.45;4.03;;;11.30;51.50;;;;;;5064040;27;20227;-66
2023/04/24 05:43:12;;;;;;;5.80;4.32;;;11.30;50.80;;;;;;5075082;27;20757;-66
2023/04/24 05:45:39;;;;;;;4.72;4.15;;;11.40;50.40;;;;;;5071656;28;20224;-66
2023/04/24 05:48:06;;;;;;;4.90;4.35;;;11.40;47.90;;;;;;5054689;27;20381;-66
2023/04/24 05:50:33;;;;;;;7.93;4.47;;;11.40;43.80;;;;;;5075884;28;20214;-66
2023/04/24 05:53:01;;;;;;;6.60;4.25;;;11.40;46.60;;;;;;5080305;28;20196;-66
2023/04/24 05:55:28;;;;;;;5.10;3.95;;;11.40;45.50;;;;;;5044300;27;21852;-66
2023/04/24 05:57:56;;;;;;;4.18;3.78;;;11.40;46.00;;;;;;5079255;27;20195;-66
2023/04/24 06:00:24;;;;;;;5.32;3.92;;;11.50;43.70;;;;;;5078601;27;20515;-66
2023/04/24 06:02:51;;;;;;;5.32;4.20;;;11.50;44.10;;;;;;5060135;27;20218;-66
2023/04/24 06:05:18;;;;;;;5.72;4.28;;;11.40;37.70;;;;;;5070244;28;20669;-66
2023/04/24 06:07:45;;;;;;;5.82;3.97;;;11.50;37.80;;;;;;5052714;27;20291;-66
2023/04/24 06:10:12;;;;;;;5.30;4.15;;;11.40;36.50;;;;;;5045884;27;20199;-66
2023/04/24 06:12:39;;;;;;;7.57;4.32;;;11.50;36.10;;;;;;5064026;27;20204;-65
2023/04/24 06:15:08;;;;;;;5.07;4.15;;;11.50;34.60;;;;;;5079903;27;20228;-66
2023/04/24 06:17:35;;;;;;;6.00;4.10;;;11.60;32.30;;;;;;5072502;28;20433;-66
2023/04/24 06:20:04;;;;;;;8.20;4.30;;;11.60;35.40;;;;;;5047527;27;20203;-66
2023/04/24 06:22:31;;;;;;;6.05;4.82;;;11.70;35.80;;;;;;5074063;28;20926;-66
2023/04/24 06:24:58;;;;;;;6.80;4.53;;;11.70;30.90;;;;;;5084143;27;20215;-66
2023/04/24 06:27:24;;;;;;;8.27;5.13;;;11.70;28.00;;;;;;5047681;27;20383;-65
2023/04/24 06:29:54;;;;;;;4.40;4.00;;;11.70;22.30;;;;;;5080164;27;20195;-66
2023/04/24 06:32:22;;;;;;;6.50;4.78;;;11.70;23.30;;;;;;5062342;28;20901;-66
2023/04/24 06:34:49;;;;;;;7.65;4.60;;;11.70;27.80;;;;;;5021911;28;20342;-66
2023/04/24 06:37:17;;;;;;;11.10;4.20;;;11.80;28.30;;;;;;5053942;28;20195;-66
2023/04/24 06:39:43;;;;;;;5.45;3.92;;;11.80;26.90;;;;;;5077587;28;20481;-66
2023/04/24 06:42:10;;;;;;;7.10;4.80;;;11.80;24.90;;;;;;5055514;28;20204;-66
2023/04/24 06:44:40;;;;;;;6.88;4.25;;;11.80;20.60;;;;;;5069409;28;20200;-66
2023/04/24 06:47:08;;;;;;;4.28;3.85;;;11.80;24.40;;;;;;5073520;28;20192;-66
2023/04/24 06:49:36;;;;;;;5.20;4.53;;;11.80;20.70;;;;;;5043515;28;20678;-66
2023/04/24 06:52:03;;;;;;;7.65;4.97;;;11.70;21.00;;;;;;5078048;28;20191;-66
2023/04/24 06:54:30;;;;;;;5.00;4.43;;;11.70;25.30;;;;;;5087613;28;20226;-66
2023/04/24 06:56:57;;;;;;;5.93;4.35;;;11.60;25.80;;;;;;5061510;28;20812;-66
2023/04/24 06:59:24;;;;;;;5.45;4.90;;;11.70;25.50;;;;;;5073956;28;20247;-66
2023/04/24 07:01:50;;;;;;;4.57;4.13;;;11.70;25.20;;;;;;5072270;28;20763;-65
2023/04/24 07:04:17;;;;;;;4.85;4.20;;;11.70;23.20;;;;;;5080680;27;20199;-65
2023/04/24 07:06:46;;;;;;;7.07;4.38;;;11.70;28.90;;;;;;5056109;27;20342;-65
2023/04/24 07:09:15;;;;;;;4.72;4.20;;;11.70;31.30;;;;;;5084510;27;20847;-65
2023/04/24 07:11:42;;;;;;;5.05;4.20;;;11.80;30.30;;;;;;5062266;27;20839;-65
2023/04/24 07:14:09;;;;;;;6.25;4.97;;;11.80;29.30;;;;;;5072630;27;20343;-66
2023/04/24 07:16:36;;;;;;;5.68;4.53;;;11.80;24.80;;;;;;5081008;27;20199;-65
2023/04/24 07:19:03;;;;;;;6.85;4.85;;;11.80;25.10;;;;;;5087809;27;20397;-66
2023/04/24 07:21:31;;;;;;;7.63;4.97;;;11.80;25.90;;;;;;5059953;27;20235;-66
2023/04/24 07:23:59;;;;;;;5.63;4.68;;;11.80;26.50;;;;;;5083840;27;20200;-65
2023/04/24 07:26:26;;;;;;;5.78;4.60;;;11.80;27.60;;;;;;5082409;27;20198;-66
2023/04/24 07:28:53;;;;;;;5.10;4.50;;;11.90;29.00;;;;;;5039139;27;20763;-66
2023/04/24 07:31:20;;;;;;;9.10;5.38;;;11.80;24.60;;;;;;5083966;27;20199;-66
2023/04/24 07:33:47;;;;;;;8.15;5.43;;;11.80;22.30;;;;;;5073382;27;20493;-65
2023/04/24 07:36:18;;;;;;;5.40;4.68;;;11.80;19.10;;;;;;5064535;27;20207;-65
2023/04/24 07:38:45;;;;;;;5.78;4.90;;;11.80;20.50;;;;;;5086523;27;20432;-66
2023/04/24 07:41:13;;;;;;;6.55;5.00;;;11.80;21.60;;;;;;5086543;27;20199;-65
2023/04/24 07:43:40;;;;;;;6.80;5.45;;;11.80;19.20;;;;;;5055065;27;20647;-65
2023/04/24 07:46:07;;;;;;;6.55;5.38;;;11.90;19.00;;;;;;5069075;27;20319;-66
2023/04/24 07:48:34;;;;;;;6.78;5.30;;;11.80;21.70;;;;;;5069404;27;21213;-65
2023/04/24 07:51:01;;;;;;;8.88;5.57;;;11.90;17.10;;;;;;5056880;27;20507;-65
2023/04/24 07:53:28;;;;;;;7.00;5.80;;;11.90;21.20;;;;;;5078645;27;20195;-65
2023/04/24 07:55:55;;;;;;;9.25;5.22;;;11.90;23.10;;;;;;5081687;27;20404;-65
2023/04/24 07:58:24;;;;;;;7.07;5.20;;;11.80;18.10;;;;;;5086590;27;20801;-65
2023/04/24 08:00:50;;;;;;;6.22;5.20;;;11.80;18.40;;;;;;5048761;27;20427;-66
2023/04/24 08:03:19;;;;;;;7.70;5.47;;;11.80;15.00;;;;;;5091577;27;20200;-65
2023/04/24 08:05:46;;;;;;;8.77;5.53;;;11.80;12.10;;;;;;5056747;27;20953;-66
2023/04/24 08:08:13;;;;;;;8.10;6.32;;;11.90;17.50;;;;;;5082495;27;20227;-65
2023/04/24 08:10:40;;;;;;;9.52;6.55;;;11.90;8.80;;;;;;5075928;28;20553;-65
2023/04/24 08:13:07;;;;;;;7.65;6.03;;;11.90;10.30;;;;;;5085832;27;20199;-65
2023/04/24 08:15:35;;;;;;;7.50;6.10;;;11.90;9.90;;;;;;5047944;27;20242;-66
2023/04/24 08:18:02;;;;;;;5.75;5.00;;;12.00;11.00;;;;;;5077037;27;20231;-65
2023/04/24 08:20:29;;;;;;;6.32;4.95;;;12.10;8.10;;;;;;5080023;27;20192;-65
2023/04/24 08:22:56;;;;;;;9.98;5.93;;;12.00;1.00;;;;;;5056720;27;20607;-65
2023/04/24 08:25:24;;;;;;;8.15;5.35;;;12.10;2.30;;;;;;5082366;27;20537;-66
2023/04/24 08:27:51;;;;;;;5.80;4.93;;;12.10;1.00;;;;;;5075396;27;22535;-66
2023/04/24 08:30:18;;;;;;;6.90;5.20;;;12.10;1.00;;;;;;5060042;27;20207;-65
2023/04/24 08:32:46;;;;;;;7.95;4.95;;;12.10;1.00;;;;;;5069570;27;20200;-66
2023/04/24 08:35:13;;;;;;;5.57;4.63;;;12.00;1.00;;;;;;5087298;27;20219;-66
2023/04/24 08:37:40;;;;;;;5.22;4.60;;;12.00;1.00;;;;;;5054710;27;20199;-66
2023/04/24 08:40:12;;;;;;;6.10;4.60;;;11.90;1.00;;;;;;5082865;27;20565;-65
2023/04/24 08:42:40;;;;;;;5.30;4.60;;;11.90;1.00;;;;;;5084733;27;20194;-66
2023/04/24 08:45:08;;;;;;;5.97;4.80;;;11.80;1.00;;;;;;5074918;28;20201;-66
2023/04/24 08:47:36;;;;;;;7.07;4.22;;;11.80;1.00;;;;;;5047658;27;20313;-66
2023/04/24 08:50:07;;;;;;;4.93;4.28;;;11.80;1.00;;;;;;5081102;27;20576;-65
2023/04/24 08:52:34;;;;;;;4.85;4.35;;;11.90;1.00;;;;;;5070130;27;20200;-66
2023/04/24 08:55:01;;;;;;;6.82;4.53;;;11.80;1.00;;;;;;5072146;27;20715;-66
2023/04/24 08:57:29;;;;;;;4.90;4.20;;;11.80;1.00;;;;;;5075273;27;20633;-66
2023/04/24 08:59:57;;;;;;;5.50;4.40;;;11.80;1.00;;;;;;5082451;27;20829;-65
2023/04/24 09:02:24;;;;;;;5.03;4.10;;;11.80;1.00;;;;;;5024304;27;20661;-66
2023/04/24 09:04:52;;;;;;;8.65;4.20;;;11.80;1.00;;;;;;5089075;27;21391;-65
2023/04/24 09:07:22;;;;;;;6.88;4.25;;;11.80;13.40;;;;;;5064281;27;20691;-66
2023/04/24 09:09:51;;;;;;;6.13;4.60;;;11.80;1.00;;;;;;5059151;27;20230;-66
2023/04/24 09:12:18;;;;;;;7.53;4.97;;;11.80;1.00;;;;;;5083385;27;20192;-66
2023/04/24 09:14:45;;;;;;;10.23;4.68;;;11.80;1.00;;;;;;5077848;27;20223;-66
2023/04/24 09:17:12;;;;;;;7.00;5.43;;;11.80;1.00;;;;;;5068666;27;20200;-66
2023/04/24 09:19:39;;;;;;;7.00;5.45;;;11.80;1.00;;;;;;5053741;27;20788;-66
2023/04/24 09:22:07;;;;;;;8.52;4.78;;;11.80;1.00;;;;;;5085633;27;20607;-66
2023/04/24 09:24:35;;;;;;;7.85;4.95;;;11.70;1.00;;;;;;5053170;27;20757;-66
2023/04/24 09:27:02;;;;;;;5.72;4.53;;;11.70;1.00;;;;;;5088990;27;20238;-66
2023/04/24 09:29:29;;;;;;;6.60;5.07;;;11.70;1.00;;;;;;5068285;28;21076;-66
2023/04/24 09:31:56;;;;;;;5.05;4.55;;;11.70;5.90;;;;;;5079981;27;20195;-65
2023/04/24 09:34:24;;;;;;;4.93;4.15;;;11.70;10.10;;;;;;5048353;27;20238;-66
2023/04/24 09:36:52;;;;;;;4.63;4.15;;;11.70;6.40;;;;;;5082641;27;20199;-66
2023/04/24 09:39:20;;;;;;;5.75;4.53;;;11.80;8.40;;;;;;5052562;27;20214;-66
2023/04/24 09:41:50;;;;;;;6.90;5.05;;;11.80;1.00;;;;;;5074977;27;20221;-65
2023/04/24 09:44:20;;;;;;;4.60;3.72;;;11.80;1.00;;;;;;5061549;27;20212;-65
2023/04/24 09:46:51;;;;;;;3.50;3.20;;;11.80;1.00;;;;;;5070744;27;20464;-66
2023/04/24 09:49:23;;;;;;;3.85;3.30;;;11.80;1.00;;;;;;5049260;27;20213;-66
2023/04/24 09:51:50;;;;;;;5.43;3.75;;;11.80;1.10;;;;;;5076871;27;20204;-66
2023/04/24 09:54:19;;;;;;;6.90;4.28;;;11.80;1.00;;;;;;5072340;27;20195;-66
2023/04/24 09:56:49;;;;;;;5.80;4.80;;;11.80;1.00;;;;;;5056365;27;20260;-66
2023/04/24 09:59:18;;;;;;;6.90;5.18;;;11.70;11.30;;;;;;5057187;27;20196;-66
2023/04/24 10:01:45;;;;;;;7.30;5.07;;;11.80;17.60;;;;;;5067273;28;20196;-66
2023/04/24 10:04:20;;;;;;;6.07;4.57;;;11.80;17.80;;;;;;5052179;27;20214;-66
2023/04/24 10:06:48;;;;;;;6.43;4.07;;;11.80;14.60;;;;;;5071889;27;20439;-66
2023/04/24 10:09:15;;;;;;;5.07;4.20;;;11.80;5.30;;;;;;5076695;28;20196;-65
2023/04/24 10:11:44;;;;;;;4.82;3.70;;;11.80;1.00;;;;;;5059836;27;20199;-65
2023/04/24 10:14:14;;;;;;;5.05;4.30;;;11.80;1.00;;;;;;5073729;27;20198;-65
2023/04/24 10:16:46;;;;;;;3.78;3.20;;;11.90;1.80;;;;;;5080479;27;20320;-65
2023/04/24 10:19:14;;;;;;;4.22;3.50;;;11.90;1.00;;;;;;5049521;27;20272;-65
2023/04/24 10:21:46;;;;;;;4.72;3.63;;;12.00;1.00;;;;;;5058919;28;20230;-65
2023/04/24 10:24:13;;;;;;;4.15;3.75;;;12.10;1.00;;;;;;5074936;27;20553;-65
2023/04/24 10:26:41;;;;;;;4.65;4.25;;;12.10;1.00;;;;;;5053995;28;20693;-65
2023/04/24 10:29:12;;;;;;;6.47;4.40;;;12.10;6.40;;;;;;5075113;27;20196;-65
2023/04/24 10:31:41;;;;;;;4.68;4.28;;;12.20;1.00;;;;;;5080584;28;20288;-65
2023/04/24 10:34:09;;;;;;;4.88;4.22;;;12.20;1.00;;;;;;5049855;27;20237;-65
2023/04/24 10:36:38;;;;;;;6.43;4.63;;;12.20;1.00;;;;;;5062130;27;20231;-65
2023/04/24 10:39:09;;;;;;;6.13;4.38;;;12.20;5.10;;;;;;5060432;27;20215;-65
2023/04/24 10:41:38;;;;;;;5.53;4.53;;;12.20;8.70;;;;;;5042732;27;20214;-65
2023/04/24 10:44:06;;;;;;;7.25;5.20;;;12.10;12.00;;;;;;5076237;27;20731;-65
2023/04/24 10:46:33;;;;;;;7.63;5.25;;;12.10;16.40;;;;;;5084110;28;20192;-65
2023/04/24 10:49:08;;;;;;;6.00;5.20;;;12.00;23.80;;;;;;5083821;28;20740;-65
2023/04/24 10:51:47;;;;;;;9.48;5.57;;;11.90;33.00;;;;;;5045300;28;20204;-65
2023/04/24 10:54:25;;;;;;;7.47;6.00;;;11.80;43.90;;;;;;5084653;28;20191;-65
2023/04/24 10:56:52;;;;;;;10.10;5.70;;;11.80;54.20;;;;;;5056832;28;20265;-65
2023/04/24 10:59:25;;;;;;;6.88;5.65;;;11.70;59.10;;;;;;5085040;28;20972;-65
2023/04/24 11:01:55;;;;;;;6.95;5.55;;;11.60;70.40;;;;;;5071166;28;20353;-65
2023/04/24 11:04:32;;;;;;;6.50;5.78;;;11.60;78.00;;;;;;5082257;28;20255;-65
2023/04/24 11:06:59;;;;;;;8.65;5.80;;;11.60;82.60;;;;;;5052835;28;20406;-65
2023/04/24 11:09:28;;;;;;;8.38;6.05;;;11.60;84.90;;;;;;5079102;28;20195;-65
2023/04/24 11:12:06;;;;;;;7.32;5.70;;;11.60;88.70;;;;;;5059369;28;21098;-65
2023/04/24 11:15:00;;;;;;;8.43;5.63;;;11.50;90.50;;;;;;5078822;28;20330;-65
2023/04/24 11:17:31;;;;;;;8.68;6.50;;;11.50;91.10;;;;;;5088676;28;20689;-65
2023/04/24 11:20:05;;;;;;;6.40;5.72;;;11.50;90.70;;;;;;5088135;28;20388;-65
2023/04/24 11:22:35;;;;;;;10.10;6.57;;;11.50;92.00;;;;;;5043566;28;20592;-65
2023/04/24 11:25:03;;;;;;;8.05;6.65;;;11.40;94.70;;;;;;5079487;28;20609;-65
2023/04/24 11:27:32;;;;;;;9.23;6.82;;;11.30;95.10;;;;;;5073675;28;20221;-65
2023/04/24 11:30:04;;;;;;;7.10;5.47;;;11.30;96.30;;;;;;5043851;28;20297;-65
2023/04/24 11:32:37;;;;;;;5.63;5.07;;;11.30;96.80;;;;;;5076735;28;20591;-65
2023/04/24 11:35:08;;;;;;;6.65;5.10;;;11.20;98.50;;;;;;5075762;28;20716;-65
2023/04/24 11:37:36;;;;;;;5.55;4.97;;;11.20;99.10;;;;;;5037467;28;20208;-66
2023/04/24 11:40:05;;;;;;;6.32;5.20;;;11.20;99.90;;;;;;5083461;28;20195;-65
2023/04/24 11:42:35;;;;;;;5.45;4.78;;;11.20;99.90;;;;;;5080757;27;20199;-66
2023/04/24 11:45:03;;;;;;;7.82;5.18;;;11.10;99.90;;;;;;5061588;28;20209;-66
2023/04/24 11:47:32;;;;;;;7.50;4.60;;;11.10;99.90;;;;;;5085726;28;20280;-65
2023/04/24 11:50:00;;;;;;;5.05;4.32;;;11.10;99.90;;;;;;5078761;28;20631;-65
2023/04/24 11:52:28;;;;;;;5.30;4.43;;;11.20;99.90;;;;;;5056743;27;20226;-65
2023/04/24 11:54:55;;;;;;;5.95;4.88;;;11.20;99.90;;;;;;5070157;27;20246;-66
2023/04/24 11:57:23;;;;;;;6.57;5.03;;;11.20;99.90;;;;;;5087728;27;20198;-66
2023/04/24 11:59:50;;;;;;;5.32;4.55;;;11.20;99.90;;;;;;5042107;27;20872;-66
2023/04/24 12:02:24;;;;;;;4.57;4.18;;;11.20;99.90;;;;;;5065719;27;20220;-66
2023/04/24 12:04:51;;;;;;;4.50;3.80;;;11.20;99.90;;;;;;5062322;27;21282;-66
2023/04/24 12:07:18;;;;;;;3.45;3.15;;;11.20;99.90;;;;;;5051843;27;21761;-66
2023/04/24 12:09:47;;;;;;;6.25;3.65;;;11.10;99.90;;;;;;5065155;27;20227;-66
2023/04/24 12:12:15;;;;;;;3.90;3.45;;;11.10;99.90;;;;;;5062253;27;20204;-66
2023/04/24 12:14:48;;;;;;;4.28;3.60;;;11.10;99.90;;;;;;5084480;27;20227;-65
2023/04/24 12:17:15;;;;;;;4.18;3.78;;;11.00;99.90;;;;;;5058111;27;20227;-66
2023/04/24 12:19:47;;;;;;;7.18;3.90;;;11.00;99.90;;;;;;5063161;27;20199;-67
2023/04/24 12:22:14;;;;;;;4.72;3.67;;;11.00;99.90;;;;;;5048277;27;20610;-66
2023/04/24 12:24:57;;;;;;;4.30;3.28;;;10.90;99.90;;;;;;5075742;27;20408;-66
2023/04/24 12:27:24;;;;;;;3.33;3.03;;;11.00;99.90;;;;;;5080633;27;20419;-66
2023/04/24 12:29:56;;;;;;;2.97;2.65;;;11.00;99.90;;;;;;5075730;27;20241;-66
2023/04/24 12:32:23;;;;;;;3.10;2.42;;;10.90;99.90;;;;;;5056340;27;20442;-66
2023/04/24 12:34:51;;;;;;;4.05;2.45;;;10.80;99.90;;;;;;5070910;27;20195;-66
2023/04/24 12:37:18;;;;;;;2.55;2.35;;;10.70;99.90;;;;;;5058709;27;20863;-66
2023/04/24 12:40:00;;;;;;;3.35;2.88;;;10.40;99.90;;;;;;5062187;27;20215;-66
2023/04/24 12:42:28;;;;;;;4.00;3.13;;;10.30;99.90;;;;;;5084316;27;20220;-66
2023/04/24 12:44:58;;;;;;;5.10;3.17;;;10.20;99.90;;;;;;5084311;27;20203;-65
2023/04/24 12:47:25;;;;;;;6.40;4.28;;;10.10;99.90;;;;;;5068627;27;20280;-66
2023/04/24 12:49:52;;;;;;;5.63;4.22;;;10.10;99.90;;;;;;5069128;27;20197;-66
2023/04/24 12:52:19;;;;;;;6.70;4.30;;;10.00;99.90;;;;;;5077831;28;20211;-66